sensor_id;sensor_type;location;lat;lon;timestamp;P1;durP1;ratioP1;P2;durP2;ratioP2
22916;SDS011;11624;53.250;7.456;2022-11-15T00:00:53;40.95;;;21.38;;
22916;SDS011;11624;53.250;7.456;2022-11-15T00:03:40;35.97;;;21.08;;
22916;SDS011;11624;53.250;7.456;2022-11-15T00:06:27;37.95;;;21.38;;
22916;SDS011;11624;53.250;7.456;2022-11-15T00:09:15;37.60;;;20.27;;
22916;SDS011;11624;53.250;7.456;2022-11-15T00:12:01;39.97;;;21.40;;
22916;SDS011;11624;53.250;7.456;2022-11-15T00:14:48;36.58;;;21.00;;
22916;SDS011;11624;53.250;7.456;2022-11-15T00:17:35;35.60;;;20.38;;
22916;SDS011;11624;53.250;7.456;2022-11-15T00:20:21;34.33;;;20.25;;
22916;SDS011;11624;53.250;7.456;2022-11-15T00:23:08;35.70;;;19.48;;
22916;SDS011;11624;53.250;7.456;2022-11-15T00:25:57;37.00;;;19.13;;
22916;SDS011;11624;53.250;7.456;2022-11-15T00:28:43;35.10;;;20.42;;
22916;SDS011;11624;53.250;7.456;2022-11-15T00:31:30;37.83;;;19.50;;
22916;SDS011;11624;53.250;7.456;2022-11-15T00:34:17;37.92;;;19.45;;
22916;SDS011;11624;53.250;7.456;2022-11-15T00:37:04;38.03;;;19.20;;
22916;SDS011;11624;53.250;7.456;2022-11-15T00:39:52;36.65;;;20.10;;
22916;SDS011;11624;53.250;7.456;2022-11-15T00:42:40;33.35;;;19.75;;
22916;SDS011;11624;53.250;7.456;2022-11-15T00:45:28;35.70;;;20.08;;
22916;SDS011;11624;53.250;7.456;2022-11-15T00:48:14;37.08;;;20.52;;
22916;SDS011;11624;53.250;7.456;2022-11-15T00:51:01;37.92;;;19.77;;
22916;SDS011;11624;53.250;7.456;2022-11-15T00:53:48;39.20;;;19.77;;
22916;SDS011;11624;53.250;7.456;2022-11-15T00:56:35;35.00;;;20.42;;
22916;SDS011;11624;53.250;7.456;2022-11-15T00:59:23;36.22;;;19.73;;
22916;SDS011;11624;53.250;7.456;2022-11-15T01:02:10;36.53;;;19.75;;
22916;SDS011;11624;53.250;7.456;2022-11-15T01:04:57;36.30;;;19.83;;
22916;SDS011;11624;53.250;7.456;2022-11-15T01:07:44;39.35;;;20.63;;
22916;SDS011;11624;53.250;7.456;2022-11-15T01:10:30;37.22;;;20.05;;
22916;SDS011;11624;53.250;7.456;2022-11-15T01:13:17;34.42;;;18.88;;
22916;SDS011;11624;53.250;7.456;2022-11-15T01:16:09;35.83;;;19.70;;
22916;SDS011;11624;53.250;7.456;2022-11-15T01:18:57;36.45;;;20.05;;
22916;SDS011;11624;53.250;7.456;2022-11-15T01:21:44;37.45;;;19.85;;
22916;SDS011;11624;53.250;7.456;2022-11-15T01:24:31;37.83;;;19.65;;
22916;SDS011;11624;53.250;7.456;2022-11-15T01:27:17;33.72;;;18.70;;
22916;SDS011;11624;53.250;7.456;2022-11-15T01:30:05;34.60;;;19.45;;
22916;SDS011;11624;53.250;7.456;2022-11-15T01:32:54;37.70;;;19.48;;
22916;SDS011;11624;53.250;7.456;2022-11-15T01:35:41;35.35;;;19.08;;
22916;SDS011;11624;53.250;7.456;2022-11-15T01:38:28;38.10;;;18.58;;
22916;SDS011;11624;53.250;7.456;2022-11-15T01:41:15;34.25;;;19.42;;
22916;SDS011;11624;53.250;7.456;2022-11-15T01:47:26;36.63;;;19.65;;
22916;SDS011;11624;53.250;7.456;2022-11-15T01:50:18;40.95;;;21.38;;
22916;SDS011;11624;53.250;7.456;2022-11-15T01:53:08;38.63;;;21.02;;
22916;SDS011;11624;53.250;7.456;2022-11-15T01:55:57;36.25;;;19.95;;
22916;SDS011;11624;53.250;7.456;2022-11-15T01:58:44;38.28;;;19.83;;
22916;SDS011;11624;53.250;7.456;2022-11-15T02:01:32;37.33;;;20.45;;
22916;SDS011;11624;53.250;7.456;2022-11-15T02:04:20;38.10;;;20.67;;
22916;SDS011;11624;53.250;7.456;2022-11-15T02:07:12;37.10;;;20.57;;
22916;SDS011;11624;53.250;7.456;2022-11-15T02:10:02;35.28;;;19.48;;
22916;SDS011;11624;53.250;7.456;2022-11-15T02:12:53;40.75;;;20.65;;
22916;SDS011;11624;53.250;7.456;2022-11-15T02:15:43;36.75;;;19.30;;
22916;SDS011;11624;53.250;7.456;2022-11-15T02:18:48;37.40;;;20.67;;
22916;SDS011;11624;53.250;7.456;2022-11-15T02:21:40;38.97;;;19.90;;
22916;SDS011;11624;53.250;7.456;2022-11-15T02:24:37;38.55;;;20.10;;
22916;SDS011;11624;53.250;7.456;2022-11-15T02:31:09;37.25;;;19.98;;
22916;SDS011;11624;53.250;7.456;2022-11-15T02:34:00;34.55;;;19.58;;
22916;SDS011;11624;53.250;7.456;2022-11-15T02:36:56;38.38;;;20.80;;
22916;SDS011;11624;53.250;7.456;2022-11-15T02:39:51;34.75;;;19.65;;
22916;SDS011;11624;53.250;7.456;2022-11-15T02:42:46;36.25;;;19.65;;
22916;SDS011;11624;53.250;7.456;2022-11-15T02:45:56;37.95;;;20.17;;
22916;SDS011;11624;53.250;7.456;2022-11-15T02:48:49;38.15;;;20.13;;
22916;SDS011;11624;53.250;7.456;2022-11-15T02:51:37;37.95;;;20.15;;
22916;SDS011;11624;53.250;7.456;2022-11-15T02:54:25;35.72;;;19.85;;
22916;SDS011;11624;53.250;7.456;2022-11-15T02:57:16;38.30;;;19.58;;
22916;SDS011;11624;53.250;7.456;2022-11-15T03:00:06;37.22;;;19.40;;
22916;SDS011;11624;53.250;7.456;2022-11-15T03:03:01;35.40;;;20.20;;
22916;SDS011;11624;53.250;7.456;2022-11-15T03:06:06;36.15;;;18.70;;
22916;SDS011;11624;53.250;7.456;2022-11-15T03:09:05;37.90;;;19.23;;
22916;SDS011;11624;53.250;7.456;2022-11-15T03:11:56;36.92;;;19.73;;
22916;SDS011;11624;53.250;7.456;2022-11-15T03:14:51;35.85;;;18.88;;
22916;SDS011;11624;53.250;7.456;2022-11-15T03:17:45;36.22;;;19.15;;
22916;SDS011;11624;53.250;7.456;2022-11-15T03:20:37;38.50;;;20.08;;
22916;SDS011;11624;53.250;7.456;2022-11-15T03:23:26;38.95;;;19.20;;
22916;SDS011;11624;53.250;7.456;2022-11-15T03:26:16;37.63;;;20.00;;
22916;SDS011;11624;53.250;7.456;2022-11-15T03:29:08;36.97;;;19.50;;
22916;SDS011;11624;53.250;7.456;2022-11-15T03:31:59;35.58;;;19.77;;
22916;SDS011;11624;53.250;7.456;2022-11-15T03:34:50;33.95;;;19.45;;
22916;SDS011;11624;53.250;7.456;2022-11-15T03:37:43;32.00;;;18.63;;
22916;SDS011;11624;53.250;7.456;2022-11-15T03:40:36;44.13;;;19.70;;
22916;SDS011;11624;53.250;7.456;2022-11-15T03:43:29;37.08;;;20.15;;
22916;SDS011;11624;53.250;7.456;2022-11-15T03:46:20;37.17;;;18.20;;
22916;SDS011;11624;53.250;7.456;2022-11-15T03:49:12;39.95;;;20.20;;
22916;SDS011;11624;53.250;7.456;2022-11-15T03:52:03;36.95;;;19.38;;
22916;SDS011;11624;53.250;7.456;2022-11-15T03:54:50;35.10;;;19.35;;
22916;SDS011;11624;53.250;7.456;2022-11-15T03:57:40;38.88;;;20.50;;
22916;SDS011;11624;53.250;7.456;2022-11-15T04:00:27;39.00;;;20.17;;
22916;SDS011;11624;53.250;7.456;2022-11-15T04:03:15;40.90;;;20.13;;
22916;SDS011;11624;53.250;7.456;2022-11-15T04:06:01;38.63;;;20.30;;
22916;SDS011;11624;53.250;7.456;2022-11-15T04:08:48;35.53;;;18.67;;
22916;SDS011;11624;53.250;7.456;2022-11-15T04:11:35;39.40;;;20.25;;
22916;SDS011;11624;53.250;7.456;2022-11-15T04:14:23;40.05;;;20.42;;
22916;SDS011;11624;53.250;7.456;2022-11-15T04:17:10;36.47;;;19.73;;
22916;SDS011;11624;53.250;7.456;2022-11-15T04:19:56;34.95;;;19.08;;
22916;SDS011;11624;53.250;7.456;2022-11-15T04:23:01;39.50;;;19.95;;
22916;SDS011;11624;53.250;7.456;2022-11-15T04:26:08;37.90;;;20.33;;
22916;SDS011;11624;53.250;7.456;2022-11-15T04:28:57;40.70;;;19.90;;
22916;SDS011;11624;53.250;7.456;2022-11-15T04:32:03;39.50;;;19.20;;
22916;SDS011;11624;53.250;7.456;2022-11-15T04:34:51;39.63;;;19.63;;
22916;SDS011;11624;53.250;7.456;2022-11-15T04:37:37;39.97;;;20.25;;
22916;SDS011;11624;53.250;7.456;2022-11-15T04:40:30;40.80;;;20.17;;
22916;SDS011;11624;53.250;7.456;2022-11-15T04:43:17;37.25;;;19.75;;
22916;SDS011;11624;53.250;7.456;2022-11-15T04:46:04;39.38;;;20.88;;
22916;SDS011;11624;53.250;7.456;2022-11-15T04:48:52;39.60;;;20.63;;
22916;SDS011;11624;53.250;7.456;2022-11-15T04:51:43;39.83;;;21.25;;
22916;SDS011;11624;53.250;7.456;2022-11-15T04:54:29;37.70;;;19.83;;
22916;SDS011;11624;53.250;7.456;2022-11-15T04:57:17;40.90;;;20.75;;
22916;SDS011;11624;53.250;7.456;2022-11-15T05:00:04;41.45;;;21.83;;
22916;SDS011;11624;53.250;7.456;2022-11-15T05:02:52;39.33;;;20.13;;
22916;SDS011;11624;53.250;7.456;2022-11-15T05:05:58;39.80;;;20.92;;
22916;SDS011;11624;53.250;7.456;2022-11-15T05:08:45;37.03;;;20.42;;
22916;SDS011;11624;53.250;7.456;2022-11-15T05:11:32;42.42;;;21.48;;
22916;SDS011;11624;53.250;7.456;2022-11-15T05:14:18;39.85;;;20.98;;
22916;SDS011;11624;53.250;7.456;2022-11-15T05:17:05;40.85;;;20.45;;
22916;SDS011;11624;53.250;7.456;2022-11-15T05:19:52;46.17;;;21.15;;
22916;SDS011;11624;53.250;7.456;2022-11-15T05:22:40;40.58;;;20.52;;
22916;SDS011;11624;53.250;7.456;2022-11-15T05:25:27;42.10;;;20.98;;
22916;SDS011;11624;53.250;7.456;2022-11-15T05:28:14;43.30;;;21.00;;
22916;SDS011;11624;53.250;7.456;2022-11-15T05:31:00;39.47;;;21.05;;
22916;SDS011;11624;53.250;7.456;2022-11-15T05:33:48;43.70;;;21.35;;
22916;SDS011;11624;53.250;7.456;2022-11-15T05:36:36;45.33;;;21.35;;
22916;SDS011;11624;53.250;7.456;2022-11-15T05:39:25;46.22;;;20.75;;
22916;SDS011;11624;53.250;7.456;2022-11-15T05:42:12;39.30;;;20.60;;
22916;SDS011;11624;53.250;7.456;2022-11-15T05:45:00;43.30;;;19.60;;
22916;SDS011;11624;53.250;7.456;2022-11-15T05:47:48;42.38;;;20.55;;
22916;SDS011;11624;53.250;7.456;2022-11-15T05:50:36;42.95;;;21.02;;
22916;SDS011;11624;53.250;7.456;2022-11-15T05:53:24;43.40;;;20.92;;
22916;SDS011;11624;53.250;7.456;2022-11-15T05:56:13;41.78;;;21.15;;
22916;SDS011;11624;53.250;7.456;2022-11-15T05:59:01;40.92;;;21.00;;
22916;SDS011;11624;53.250;7.456;2022-11-15T06:01:49;46.35;;;21.70;;
22916;SDS011;11624;53.250;7.456;2022-11-15T06:04:36;41.85;;;20.67;;
22916;SDS011;11624;53.250;7.456;2022-11-15T06:07:23;42.80;;;20.85;;
22916;SDS011;11624;53.250;7.456;2022-11-15T06:10:10;49.40;;;20.85;;
22916;SDS011;11624;53.250;7.456;2022-11-15T06:12:58;43.85;;;19.13;;
22916;SDS011;11624;53.250;7.456;2022-11-15T06:15:46;45.58;;;21.13;;
22916;SDS011;11624;53.250;7.456;2022-11-15T06:18:33;44.58;;;21.55;;
22916;SDS011;11624;53.250;7.456;2022-11-15T06:21:20;41.83;;;20.15;;
22916;SDS011;11624;53.250;7.456;2022-11-15T06:24:07;44.75;;;21.95;;
22916;SDS011;11624;53.250;7.456;2022-11-15T06:26:54;46.55;;;20.67;;
22916;SDS011;11624;53.250;7.456;2022-11-15T06:29:42;46.40;;;20.98;;
22916;SDS011;11624;53.250;7.456;2022-11-15T06:32:29;45.65;;;20.67;;
22916;SDS011;11624;53.250;7.456;2022-11-15T06:35:16;44.22;;;21.23;;
22916;SDS011;11624;53.250;7.456;2022-11-15T06:38:04;47.30;;;21.38;;
22916;SDS011;11624;53.250;7.456;2022-11-15T06:40:51;49.92;;;21.58;;
22916;SDS011;11624;53.250;7.456;2022-11-15T06:43:38;45.38;;;21.02;;
22916;SDS011;11624;53.250;7.456;2022-11-15T06:46:27;47.40;;;21.08;;
22916;SDS011;11624;53.250;7.456;2022-11-15T06:49:14;51.83;;;21.77;;
22916;SDS011;11624;53.250;7.456;2022-11-15T06:52:02;47.58;;;20.52;;
22916;SDS011;11624;53.250;7.456;2022-11-15T06:54:48;47.45;;;20.80;;
22916;SDS011;11624;53.250;7.456;2022-11-15T06:57:35;42.67;;;20.38;;
22916;SDS011;11624;53.250;7.456;2022-11-15T07:00:22;43.85;;;20.25;;
22916;SDS011;11624;53.250;7.456;2022-11-15T07:03:10;47.10;;;20.05;;
22916;SDS011;11624;53.250;7.456;2022-11-15T07:05:57;44.55;;;21.73;;
22916;SDS011;11624;53.250;7.456;2022-11-15T07:08:51;41.45;;;20.20;;
22916;SDS011;11624;53.250;7.456;2022-11-15T07:11:38;46.15;;;20.25;;
22916;SDS011;11624;53.250;7.456;2022-11-15T07:14:24;42.25;;;18.60;;
22916;SDS011;11624;53.250;7.456;2022-11-15T07:17:11;42.83;;;19.05;;
22916;SDS011;11624;53.250;7.456;2022-11-15T07:19:59;39.33;;;18.85;;
22916;SDS011;11624;53.250;7.456;2022-11-15T07:22:46;42.00;;;18.63;;
22916;SDS011;11624;53.250;7.456;2022-11-15T07:25:32;47.85;;;20.83;;
22916;SDS011;11624;53.250;7.456;2022-11-15T07:28:19;43.05;;;18.52;;
22916;SDS011;11624;53.250;7.456;2022-11-15T07:31:07;40.53;;;18.98;;
22916;SDS011;11624;53.250;7.456;2022-11-15T07:33:54;38.13;;;17.95;;
22916;SDS011;11624;53.250;7.456;2022-11-15T07:36:42;42.40;;;18.65;;
22916;SDS011;11624;53.250;7.456;2022-11-15T07:39:29;41.13;;;19.67;;
22916;SDS011;11624;53.250;7.456;2022-11-15T07:42:15;37.60;;;18.80;;
22916;SDS011;11624;53.250;7.456;2022-11-15T07:45:19;38.17;;;19.52;;
22916;SDS011;11624;53.250;7.456;2022-11-15T07:48:06;35.80;;;17.77;;
22916;SDS011;11624;53.250;7.456;2022-11-15T07:50:53;38.30;;;18.88;;
22916;SDS011;11624;53.250;7.456;2022-11-15T07:53:42;37.90;;;17.90;;
22916;SDS011;11624;53.250;7.456;2022-11-15T07:56:29;38.50;;;17.65;;
22916;SDS011;11624;53.250;7.456;2022-11-15T07:59:15;35.40;;;17.80;;
22916;SDS011;11624;53.250;7.456;2022-11-15T08:02:02;36.97;;;17.02;;
22916;SDS011;11624;53.250;7.456;2022-11-15T08:04:49;36.20;;;18.30;;
22916;SDS011;11624;53.250;7.456;2022-11-15T08:07:36;37.53;;;18.83;;
22916;SDS011;11624;53.250;7.456;2022-11-15T08:10:26;34.75;;;17.58;;
22916;SDS011;11624;53.250;7.456;2022-11-15T08:13:13;35.63;;;17.13;;
22916;SDS011;11624;53.250;7.456;2022-11-15T08:16:01;36.08;;;17.10;;
22916;SDS011;11624;53.250;7.456;2022-11-15T08:18:50;35.90;;;18.27;;
22916;SDS011;11624;53.250;7.456;2022-11-15T08:21:37;33.88;;;17.58;;
22916;SDS011;11624;53.250;7.456;2022-11-15T08:24:24;35.20;;;17.15;;
22916;SDS011;11624;53.250;7.456;2022-11-15T08:27:12;32.38;;;17.60;;
22916;SDS011;11624;53.250;7.456;2022-11-15T08:30:01;37.92;;;17.73;;
22916;SDS011;11624;53.250;7.456;2022-11-15T08:32:48;33.13;;;16.50;;
22916;SDS011;11624;53.250;7.456;2022-11-15T08:35:36;39.00;;;17.13;;
22916;SDS011;11624;53.250;7.456;2022-11-15T08:38:23;33.42;;;16.58;;
22916;SDS011;11624;53.250;7.456;2022-11-15T08:41:11;31.42;;;17.08;;
22916;SDS011;11624;53.250;7.456;2022-11-15T08:44:04;33.88;;;16.42;;
22916;SDS011;11624;53.250;7.456;2022-11-15T08:46:51;33.83;;;16.60;;
22916;SDS011;11624;53.250;7.456;2022-11-15T08:49:37;33.22;;;16.63;;
22916;SDS011;11624;53.250;7.456;2022-11-15T08:52:24;32.08;;;16.38;;
22916;SDS011;11624;53.250;7.456;2022-11-15T08:55:11;31.58;;;17.15;;
22916;SDS011;11624;53.250;7.456;2022-11-15T08:58:01;31.95;;;16.30;;
22916;SDS011;11624;53.250;7.456;2022-11-15T09:00:49;29.70;;;15.73;;
22916;SDS011;11624;53.250;7.456;2022-11-15T09:03:36;33.30;;;16.45;;
22916;SDS011;11624;53.250;7.456;2022-11-15T09:06:23;28.98;;;15.75;;
22916;SDS011;11624;53.250;7.456;2022-11-15T09:09:09;31.95;;;15.25;;
22916;SDS011;11624;53.250;7.456;2022-11-15T09:11:56;31.25;;;15.88;;
22916;SDS011;11624;53.250;7.456;2022-11-15T09:14:46;33.42;;;16.45;;
22916;SDS011;11624;53.250;7.456;2022-11-15T09:17:35;30.33;;;15.75;;
22916;SDS011;11624;53.250;7.456;2022-11-15T09:20:22;31.10;;;15.35;;
22916;SDS011;11624;53.250;7.456;2022-11-15T09:23:09;27.67;;;15.00;;
22916;SDS011;11624;53.250;7.456;2022-11-15T09:25:59;29.20;;;16.02;;
22916;SDS011;11624;53.250;7.456;2022-11-15T09:28:47;28.48;;;15.10;;
22916;SDS011;11624;53.250;7.456;2022-11-15T09:31:35;30.83;;;15.60;;
22916;SDS011;11624;53.250;7.456;2022-11-15T09:34:23;27.65;;;14.35;;
22916;SDS011;11624;53.250;7.456;2022-11-15T09:37:09;29.58;;;15.45;;
22916;SDS011;11624;53.250;7.456;2022-11-15T09:39:57;27.83;;;14.95;;
22916;SDS011;11624;53.250;7.456;2022-11-15T09:42:53;28.38;;;14.85;;
22916;SDS011;11624;53.250;7.456;2022-11-15T09:45:52;26.63;;;14.23;;
22916;SDS011;11624;53.250;7.456;2022-11-15T09:48:51;30.08;;;15.43;;
22916;SDS011;11624;53.250;7.456;2022-11-15T09:51:42;26.00;;;15.32;;
22916;SDS011;11624;53.250;7.456;2022-11-15T09:54:19;28.10;;;14.38;;
22916;SDS011;11624;53.250;7.456;2022-11-15T09:57:13;26.77;;;14.43;;
22916;SDS011;11624;53.250;7.456;2022-11-15T09:59:53;30.23;;;14.95;;
22916;SDS011;11624;53.250;7.456;2022-11-15T10:02:58;30.08;;;14.88;;
22916;SDS011;11624;53.250;7.456;2022-11-15T10:05:37;29.95;;;15.60;;
22916;SDS011;11624;53.250;7.456;2022-11-15T10:08:13;32.88;;;14.65;;
22916;SDS011;11624;53.250;7.456;2022-11-15T10:11:04;29.83;;;15.85;;
22916;SDS011;11624;53.250;7.456;2022-11-15T10:13:56;29.70;;;16.73;;
22916;SDS011;11624;53.250;7.456;2022-11-15T10:16:32;33.58;;;15.77;;
22916;SDS011;11624;53.250;7.456;2022-11-15T10:19:26;30.17;;;16.95;;
22916;SDS011;11624;53.250;7.456;2022-11-15T10:22:00;31.73;;;17.05;;
22916;SDS011;11624;53.250;7.456;2022-11-15T10:24:42;30.77;;;16.25;;
22916;SDS011;11624;53.250;7.456;2022-11-15T10:27:12;28.67;;;15.35;;
22916;SDS011;11624;53.250;7.456;2022-11-15T10:29:44;31.00;;;15.15;;
22916;SDS011;11624;53.250;7.456;2022-11-15T10:32:14;27.48;;;14.98;;
22916;SDS011;11624;53.250;7.456;2022-11-15T10:34:43;31.88;;;14.05;;
22916;SDS011;11624;53.250;7.456;2022-11-15T10:37:12;25.92;;;14.43;;
22916;SDS011;11624;53.250;7.456;2022-11-15T10:39:42;30.83;;;14.02;;
22916;SDS011;11624;53.250;7.456;2022-11-15T10:42:17;27.80;;;15.07;;
22916;SDS011;11624;53.250;7.456;2022-11-15T10:44:53;26.30;;;14.45;;
22916;SDS011;11624;53.250;7.456;2022-11-15T10:47:26;28.73;;;15.52;;
22916;SDS011;11624;53.250;7.456;2022-11-15T10:50:05;25.15;;;14.35;;
22916;SDS011;11624;53.250;7.456;2022-11-15T10:52:35;34.35;;;16.33;;
22916;SDS011;11624;53.250;7.456;2022-11-15T10:55:19;27.92;;;15.93;;
22916;SDS011;11624;53.250;7.456;2022-11-15T10:57:50;26.48;;;15.43;;
22916;SDS011;11624;53.250;7.456;2022-11-15T11:00:29;27.08;;;14.00;;
22916;SDS011;11624;53.250;7.456;2022-11-15T11:03:01;30.83;;;15.57;;
22916;SDS011;11624;53.250;7.456;2022-11-15T11:05:32;25.45;;;14.18;;
22916;SDS011;11624;53.250;7.456;2022-11-15T11:08:19;27.60;;;15.07;;
22916;SDS011;11624;53.250;7.456;2022-11-15T11:10:55;25.40;;;15.02;;
22916;SDS011;11624;53.250;7.456;2022-11-15T11:13:29;27.42;;;14.43;;
22916;SDS011;11624;53.250;7.456;2022-11-15T11:16:02;28.52;;;15.30;;
22916;SDS011;11624;53.250;7.456;2022-11-15T11:18:46;30.80;;;15.00;;
22916;SDS011;11624;53.250;7.456;2022-11-15T11:21:22;27.35;;;15.10;;
22916;SDS011;11624;53.250;7.456;2022-11-15T11:24:06;28.83;;;14.35;;
22916;SDS011;11624;53.250;7.456;2022-11-15T11:26:45;27.25;;;15.43;;
22916;SDS011;11624;53.250;7.456;2022-11-15T11:29:29;27.15;;;14.43;;
22916;SDS011;11624;53.250;7.456;2022-11-15T11:32:13;28.10;;;14.85;;
22916;SDS011;11624;53.250;7.456;2022-11-15T11:34:57;24.65;;;14.63;;
22916;SDS011;11624;53.250;7.456;2022-11-15T11:37:35;27.20;;;14.50;;
22916;SDS011;11624;53.250;7.456;2022-11-15T11:40:15;25.85;;;14.18;;
22916;SDS011;11624;53.250;7.456;2022-11-15T11:42:55;24.88;;;13.73;;
22916;SDS011;11624;53.250;7.456;2022-11-15T11:45:43;23.58;;;14.05;;
22916;SDS011;11624;53.250;7.456;2022-11-15T11:48:23;23.42;;;14.10;;
22916;SDS011;11624;53.250;7.456;2022-11-15T11:51:05;27.10;;;14.45;;
22916;SDS011;11624;53.250;7.456;2022-11-15T11:53:39;25.77;;;14.75;;
22916;SDS011;11624;53.250;7.456;2022-11-15T11:56:16;22.83;;;13.82;;
22916;SDS011;11624;53.250;7.456;2022-11-15T11:58:52;23.27;;;13.48;;
22916;SDS011;11624;53.250;7.456;2022-11-15T12:01:23;24.45;;;12.52;;
22916;SDS011;11624;53.250;7.456;2022-11-15T12:03:54;19.65;;;12.20;;
22916;SDS011;11624;53.250;7.456;2022-11-15T12:06:27;19.05;;;11.07;;
22916;SDS011;11624;53.250;7.456;2022-11-15T12:09:01;20.00;;;11.45;;
22916;SDS011;11624;53.250;7.456;2022-11-15T12:11:36;20.05;;;10.85;;
22916;SDS011;11624;53.250;7.456;2022-11-15T12:14:16;19.02;;;11.43;;
22916;SDS011;11624;53.250;7.456;2022-11-15T12:16:54;19.63;;;11.27;;
22916;SDS011;11624;53.250;7.456;2022-11-15T12:19:23;19.00;;;11.20;;
22916;SDS011;11624;53.250;7.456;2022-11-15T12:21:54;23.63;;;12.02;;
22916;SDS011;11624;53.250;7.456;2022-11-15T12:24:29;19.42;;;11.80;;
22916;SDS011;11624;53.250;7.456;2022-11-15T12:27:02;18.67;;;11.93;;
22916;SDS011;11624;53.250;7.456;2022-11-15T12:29:37;22.27;;;12.63;;
22916;SDS011;11624;53.250;7.456;2022-11-15T12:32:13;19.73;;;11.38;;
22916;SDS011;11624;53.250;7.456;2022-11-15T12:34:52;19.63;;;11.10;;
22916;SDS011;11624;53.250;7.456;2022-11-15T12:40:25;19.92;;;11.45;;
22916;SDS011;11624;53.250;7.456;2022-11-15T12:46:19;20.48;;;11.52;;
22916;SDS011;11624;53.250;7.456;2022-11-15T12:48:53;17.95;;;10.30;;
22916;SDS011;11624;53.250;7.456;2022-11-15T12:57:36;17.27;;;9.55;;
22916;SDS011;11624;53.250;7.456;2022-11-15T13:03:20;14.15;;;7.50;;
22916;SDS011;11624;53.250;7.456;2022-11-15T13:05:55;13.75;;;7.28;;
22916;SDS011;11624;53.250;7.456;2022-11-15T13:17:25;10.25;;;5.18;;
22916;SDS011;11624;53.250;7.456;2022-11-15T13:20:21;10.93;;;4.63;;
22916;SDS011;11624;53.250;7.456;2022-11-15T13:22:58;11.50;;;4.03;;
22916;SDS011;11624;53.250;7.456;2022-11-15T13:28:26;6.70;;;3.13;;
22916;SDS011;11624;53.250;7.456;2022-11-15T13:31:02;6.70;;;2.85;;
22916;SDS011;11624;53.250;7.456;2022-11-15T13:33:41;6.53;;;2.50;;
22916;SDS011;11624;53.250;7.456;2022-11-15T13:36:14;5.75;;;2.53;;
22916;SDS011;11624;53.250;7.456;2022-11-15T13:38:54;5.72;;;2.25;;
22916;SDS011;11624;53.250;7.456;2022-11-15T13:41:25;5.53;;;2.20;;
22916;SDS011;11624;53.250;7.456;2022-11-15T13:43:55;8.70;;;2.30;;
22916;SDS011;11624;53.250;7.456;2022-11-15T13:46:26;8.55;;;2.80;;
22916;SDS011;11624;53.250;7.456;2022-11-15T13:48:56;7.22;;;2.50;;
22916;SDS011;11624;53.250;7.456;2022-11-15T13:51:40;8.57;;;2.85;;
22916;SDS011;11624;53.250;7.456;2022-11-15T13:54:14;7.63;;;2.65;;
22916;SDS011;11624;53.250;7.456;2022-11-15T13:56:48;11.35;;;3.05;;
22916;SDS011;11624;53.250;7.456;2022-11-15T13:59:25;7.63;;;2.53;;
22916;SDS011;11624;53.250;7.456;2022-11-15T14:01:55;6.78;;;2.42;;
22916;SDS011;11624;53.250;7.456;2022-11-15T14:04:28;10.20;;;2.95;;
22916;SDS011;11624;53.250;7.456;2022-11-15T14:07:01;7.38;;;2.70;;
22916;SDS011;11624;53.250;7.456;2022-11-15T14:09:35;8.20;;;2.63;;
22916;SDS011;11624;53.250;7.456;2022-11-15T14:12:22;8.43;;;2.97;;
22916;SDS011;11624;53.250;7.456;2022-11-15T14:14:52;8.20;;;2.92;;
22916;SDS011;11624;53.250;7.456;2022-11-15T14:17:32;8.52;;;3.00;;
22916;SDS011;11624;53.250;7.456;2022-11-15T14:20:02;7.22;;;3.05;;
22916;SDS011;11624;53.250;7.456;2022-11-15T14:22:53;8.60;;;3.10;;
22916;SDS011;11624;53.250;7.456;2022-11-15T14:25:23;9.70;;;3.40;;
22916;SDS011;11624;53.250;7.456;2022-11-15T14:28:10;9.65;;;3.83;;
22916;SDS011;11624;53.250;7.456;2022-11-15T14:30:45;9.77;;;3.78;;
22916;SDS011;11624;53.250;7.456;2022-11-15T14:33:18;13.13;;;4.47;;
22916;SDS011;11624;53.250;7.456;2022-11-15T14:35:49;10.50;;;3.50;;
22916;SDS011;11624;53.250;7.456;2022-11-15T14:38:19;9.15;;;3.70;;
22916;SDS011;11624;53.250;7.456;2022-11-15T14:40:48;7.82;;;2.75;;
22916;SDS011;11624;53.250;7.456;2022-11-15T14:43:16;11.40;;;3.05;;
22916;SDS011;11624;53.250;7.456;2022-11-15T14:45:45;10.00;;;3.22;;
22916;SDS011;11624;53.250;7.456;2022-11-15T14:48:13;7.38;;;2.88;;
22916;SDS011;11624;53.250;7.456;2022-11-15T14:50:41;9.15;;;3.38;;
22916;SDS011;11624;53.250;7.456;2022-11-15T14:53:11;10.98;;;3.60;;
22916;SDS011;11624;53.250;7.456;2022-11-15T14:55:42;10.73;;;3.47;;
22916;SDS011;11624;53.250;7.456;2022-11-15T14:58:11;9.20;;;2.95;;
22916;SDS011;11624;53.250;7.456;2022-11-15T15:00:39;8.60;;;3.50;;
22916;SDS011;11624;53.250;7.456;2022-11-15T15:03:09;10.13;;;3.50;;
22916;SDS011;11624;53.250;7.456;2022-11-15T15:05:38;7.53;;;3.25;;
22916;SDS011;11624;53.250;7.456;2022-11-15T15:08:07;9.82;;;3.30;;
22916;SDS011;11624;53.250;7.456;2022-11-15T15:10:37;8.52;;;3.63;;
22916;SDS011;11624;53.250;7.456;2022-11-15T15:13:12;9.77;;;3.60;;
22916;SDS011;11624;53.250;7.456;2022-11-15T15:15:44;10.10;;;3.92;;
22916;SDS011;11624;53.250;7.456;2022-11-15T15:18:13;10.50;;;3.70;;
22916;SDS011;11624;53.250;7.456;2022-11-15T15:20:42;10.65;;;4.20;;
22916;SDS011;11624;53.250;7.456;2022-11-15T15:23:14;12.05;;;4.40;;
22916;SDS011;11624;53.250;7.456;2022-11-15T15:25:44;11.18;;;4.40;;
22916;SDS011;11624;53.250;7.456;2022-11-15T15:28:16;13.38;;;5.03;;
22916;SDS011;11624;53.250;7.456;2022-11-15T15:30:44;12.50;;;4.50;;
22916;SDS011;11624;53.250;7.456;2022-11-15T15:33:13;12.55;;;4.88;;
22916;SDS011;11624;53.250;7.456;2022-11-15T15:35:41;11.50;;;5.03;;
22916;SDS011;11624;53.250;7.456;2022-11-15T15:38:10;13.93;;;5.60;;
22916;SDS011;11624;53.250;7.456;2022-11-15T15:40:39;12.60;;;5.38;;
22916;SDS011;11624;53.250;7.456;2022-11-15T15:43:08;13.60;;;5.95;;
22916;SDS011;11624;53.250;7.456;2022-11-15T15:45:38;15.70;;;6.15;;
22916;SDS011;11624;53.250;7.456;2022-11-15T15:48:10;15.00;;;6.25;;
22916;SDS011;11624;53.250;7.456;2022-11-15T15:50:40;15.52;;;5.78;;
22916;SDS011;11624;53.250;7.456;2022-11-15T15:53:10;12.00;;;4.97;;
22916;SDS011;11624;53.250;7.456;2022-11-15T15:55:39;14.10;;;4.88;;
22916;SDS011;11624;53.250;7.456;2022-11-15T15:58:07;11.88;;;5.35;;
22916;SDS011;11624;53.250;7.456;2022-11-15T16:00:37;15.60;;;5.88;;
22916;SDS011;11624;53.250;7.456;2022-11-15T16:03:05;14.07;;;6.25;;
22916;SDS011;11624;53.250;7.456;2022-11-15T16:05:34;17.02;;;8.32;;
22916;SDS011;11624;53.250;7.456;2022-11-15T16:08:02;20.70;;;10.27;;
22916;SDS011;11624;53.250;7.456;2022-11-15T16:10:31;22.73;;;10.77;;
22916;SDS011;11624;53.250;7.456;2022-11-15T16:13:01;19.45;;;10.27;;
22916;SDS011;11624;53.250;7.456;2022-11-15T16:15:30;21.27;;;9.52;;
22916;SDS011;11624;53.250;7.456;2022-11-15T16:18:01;17.75;;;7.93;;
22916;SDS011;11624;53.250;7.456;2022-11-15T16:20:31;15.38;;;7.55;;
22916;SDS011;11624;53.250;7.456;2022-11-15T16:23:02;15.18;;;7.38;;
22916;SDS011;11624;53.250;7.456;2022-11-15T16:25:37;15.05;;;7.22;;
22916;SDS011;11624;53.250;7.456;2022-11-15T16:28:16;15.30;;;7.20;;
22916;SDS011;11624;53.250;7.456;2022-11-15T16:30:46;14.88;;;7.25;;
22916;SDS011;11624;53.250;7.456;2022-11-15T16:33:23;14.55;;;6.95;;